sensor_id;sensor_type;location;lat;lon;timestamp;P1;durP1;ratioP1;P2;durP2;ratioP2
12654;SDS011;6392;44.644;11.448;2022-09-09T00:01:37;6.33;;;4.00;;
12654;SDS011;6392;44.644;11.448;2022-09-09T00:04:13;7.07;;;3.67;;
12654;SDS011;6392;44.644;11.448;2022-09-09T00:06:50;7.70;;;4.03;;
12654;SDS011;6392;44.644;11.448;2022-09-09T00:09:21;4.40;;;3.63;;
12654;SDS011;6392;44.644;11.448;2022-09-09T00:11:54;8.03;;;3.97;;
12654;SDS011;6392;44.644;11.448;2022-09-09T00:14:32;7.53;;;3.80;;
12654;SDS011;6392;44.644;11.448;2022-09-09T00:17:06;11.90;;;4.03;;
12654;SDS011;6392;44.644;11.448;2022-09-09T00:19:38;4.53;;;3.40;;
12654;SDS011;6392;44.644;11.448;2022-09-09T00:22:16;3.67;;;3.37;;
12654;SDS011;6392;44.644;11.448;2022-09-09T00:24:46;5.10;;;3.70;;
12654;SDS011;6392;44.644;11.448;2022-09-09T00:27:16;6.43;;;4.00;;
12654;SDS011;6392;44.644;11.448;2022-09-09T00:29:54;4.63;;;3.83;;
12654;SDS011;6392;44.644;11.448;2022-09-09T00:32:27;5.77;;;3.93;;
12654;SDS011;6392;44.644;11.448;2022-09-09T00:34:56;6.13;;;3.47;;
12654;SDS011;6392;44.644;11.448;2022-09-09T00:37:26;6.97;;;3.90;;
12654;SDS011;6392;44.644;11.448;2022-09-09T00:39:57;5.70;;;4.33;;
12654;SDS011;6392;44.644;11.448;2022-09-09T00:42:30;5.57;;;3.67;;
12654;SDS011;6392;44.644;11.448;2022-09-09T00:45:07;7.73;;;4.67;;
12654;SDS011;6392;44.644;11.448;2022-09-09T00:47:50;6.33;;;3.57;;
12654;SDS011;6392;44.644;11.448;2022-09-09T00:50:25;7.67;;;3.93;;
12654;SDS011;6392;44.644;11.448;2022-09-09T00:53:12;6.00;;;3.77;;
12654;SDS011;6392;44.644;11.448;2022-09-09T00:55:49;7.33;;;3.87;;
12654;SDS011;6392;44.644;11.448;2022-09-09T00:58:25;6.60;;;4.27;;
12654;SDS011;6392;44.644;11.448;2022-09-09T01:00:56;5.77;;;4.40;;
12654;SDS011;6392;44.644;11.448;2022-09-09T01:03:33;9.13;;;3.70;;
12654;SDS011;6392;44.644;11.448;2022-09-09T01:06:11;5.70;;;4.00;;
12654;SDS011;6392;44.644;11.448;2022-09-09T01:08:54;6.33;;;3.67;;
12654;SDS011;6392;44.644;11.448;2022-09-09T01:11:34;8.40;;;4.03;;
12654;SDS011;6392;44.644;11.448;2022-09-09T01:14:14;7.97;;;3.73;;
12654;SDS011;6392;44.644;11.448;2022-09-09T01:16:52;5.83;;;3.53;;
12654;SDS011;6392;44.644;11.448;2022-09-09T01:19:24;5.93;;;3.40;;
12654;SDS011;6392;44.644;11.448;2022-09-09T01:22:06;7.50;;;4.07;;
12654;SDS011;6392;44.644;11.448;2022-09-09T01:24:42;4.97;;;4.00;;
12654;SDS011;6392;44.644;11.448;2022-09-09T01:27:15;4.50;;;3.70;;
12654;SDS011;6392;44.644;11.448;2022-09-09T01:29:44;6.27;;;3.53;;
12654;SDS011;6392;44.644;11.448;2022-09-09T01:35:07;6.27;;;3.43;;
12654;SDS011;6392;44.644;11.448;2022-09-09T01:37:39;6.43;;;4.20;;
12654;SDS011;6392;44.644;11.448;2022-09-09T01:40:07;6.10;;;3.93;;
12654;SDS011;6392;44.644;11.448;2022-09-09T01:42:36;6.00;;;3.83;;
12654;SDS011;6392;44.644;11.448;2022-09-09T01:45:03;4.37;;;3.60;;
12654;SDS011;6392;44.644;11.448;2022-09-09T01:47:31;5.87;;;4.23;;
12654;SDS011;6392;44.644;11.448;2022-09-09T01:49:58;7.33;;;3.80;;
12654;SDS011;6392;44.644;11.448;2022-09-09T01:52:27;6.23;;;3.90;;
12654;SDS011;6392;44.644;11.448;2022-09-09T01:54:55;5.60;;;4.17;;
12654;SDS011;6392;44.644;11.448;2022-09-09T01:57:30;6.20;;;4.77;;
12654;SDS011;6392;44.644;11.448;2022-09-09T02:00:03;13.07;;;5.10;;
12654;SDS011;6392;44.644;11.448;2022-09-09T02:02:35;7.13;;;4.47;;
12654;SDS011;6392;44.644;11.448;2022-09-09T02:05:09;7.97;;;4.30;;
12654;SDS011;6392;44.644;11.448;2022-09-09T02:07:44;8.37;;;5.10;;
12654;SDS011;6392;44.644;11.448;2022-09-09T02:10:15;7.50;;;4.13;;
12654;SDS011;6392;44.644;11.448;2022-09-09T02:12:47;8.07;;;4.43;;
12654;SDS011;6392;44.644;11.448;2022-09-09T02:15:20;7.67;;;3.70;;
12654;SDS011;6392;44.644;11.448;2022-09-09T02:17:50;8.13;;;4.40;;
12654;SDS011;6392;44.644;11.448;2022-09-09T02:20:20;5.67;;;4.07;;
12654;SDS011;6392;44.644;11.448;2022-09-09T02:22:50;6.43;;;3.10;;
12654;SDS011;6392;44.644;11.448;2022-09-09T02:25:17;3.40;;;1.50;;
12654;SDS011;6392;44.644;11.448;2022-09-09T02:27:49;13.17;;;8.03;;
12654;SDS011;6392;44.644;11.448;2022-09-09T02:30:19;8.57;;;6.50;;
12654;SDS011;6392;44.644;11.448;2022-09-09T02:32:46;7.60;;;4.33;;
12654;SDS011;6392;44.644;11.448;2022-09-09T02:35:17;6.13;;;3.40;;
12654;SDS011;6392;44.644;11.448;2022-09-09T02:37:47;3.27;;;2.97;;
12654;SDS011;6392;44.644;11.448;2022-09-09T02:40:18;7.93;;;5.83;;
12654;SDS011;6392;44.644;11.448;2022-09-09T02:42:46;5.07;;;4.57;;
12654;SDS011;6392;44.644;11.448;2022-09-09T02:45:15;3.93;;;2.97;;
12654;SDS011;6392;44.644;11.448;2022-09-09T02:47:46;6.37;;;3.33;;
12654;SDS011;6392;44.644;11.448;2022-09-09T02:50:21;5.40;;;3.50;;
12654;SDS011;6392;44.644;11.448;2022-09-09T02:52:55;4.33;;;3.77;;
12654;SDS011;6392;44.644;11.448;2022-09-09T02:55:33;3.93;;;3.47;;
12654;SDS011;6392;44.644;11.448;2022-09-09T02:58:08;5.00;;;3.87;;
12654;SDS011;6392;44.644;11.448;2022-09-09T03:00:39;6.70;;;4.40;;
12654;SDS011;6392;44.644;11.448;2022-09-09T03:03:07;8.17;;;5.07;;
12654;SDS011;6392;44.644;11.448;2022-09-09T03:05:35;4.90;;;4.43;;
12654;SDS011;6392;44.644;11.448;2022-09-09T03:08:02;5.23;;;4.13;;
12654;SDS011;6392;44.644;11.448;2022-09-09T03:10:30;8.90;;;4.80;;
12654;SDS011;6392;44.644;11.448;2022-09-09T03:12:57;10.03;;;6.70;;
12654;SDS011;6392;44.644;11.448;2022-09-09T03:15:25;11.67;;;7.53;;
12654;SDS011;6392;44.644;11.448;2022-09-09T03:17:54;8.00;;;6.30;;
12654;SDS011;6392;44.644;11.448;2022-09-09T03:20:23;9.10;;;5.20;;
12654;SDS011;6392;44.644;11.448;2022-09-09T03:22:51;11.20;;;6.67;;
12654;SDS011;6392;44.644;11.448;2022-09-09T03:25:18;8.77;;;5.97;;
12654;SDS011;6392;44.644;11.448;2022-09-09T03:27:45;15.27;;;5.83;;
12654;SDS011;6392;44.644;11.448;2022-09-09T03:30:13;7.07;;;5.27;;
12654;SDS011;6392;44.644;11.448;2022-09-09T03:32:40;8.10;;;4.83;;
12654;SDS011;6392;44.644;11.448;2022-09-09T03:35:07;7.33;;;5.30;;
12654;SDS011;6392;44.644;11.448;2022-09-09T03:37:36;10.53;;;6.90;;
12654;SDS011;6392;44.644;11.448;2022-09-09T03:40:04;9.27;;;6.10;;
12654;SDS011;6392;44.644;11.448;2022-09-09T03:42:32;9.43;;;5.77;;
12654;SDS011;6392;44.644;11.448;2022-09-09T03:44:59;8.93;;;6.17;;
12654;SDS011;6392;44.644;11.448;2022-09-09T03:47:26;10.73;;;6.57;;
12654;SDS011;6392;44.644;11.448;2022-09-09T03:49:54;10.60;;;6.70;;
12654;SDS011;6392;44.644;11.448;2022-09-09T03:52:21;9.30;;;5.90;;
12654;SDS011;6392;44.644;11.448;2022-09-09T03:54:51;9.00;;;6.07;;
12654;SDS011;6392;44.644;11.448;2022-09-09T03:57:18;6.80;;;5.50;;
12654;SDS011;6392;44.644;11.448;2022-09-09T03:59:45;9.33;;;6.37;;
12654;SDS011;6392;44.644;11.448;2022-09-09T04:02:12;7.20;;;6.00;;
12654;SDS011;6392;44.644;11.448;2022-09-09T04:04:40;9.07;;;5.60;;
12654;SDS011;6392;44.644;11.448;2022-09-09T04:07:07;6.37;;;5.07;;
12654;SDS011;6392;44.644;11.448;2022-09-09T04:09:34;4.97;;;4.47;;
12654;SDS011;6392;44.644;11.448;2022-09-09T04:12:02;4.60;;;4.20;;
12654;SDS011;6392;44.644;11.448;2022-09-09T04:14:31;4.87;;;4.17;;
12654;SDS011;6392;44.644;11.448;2022-09-09T04:16:58;5.57;;;3.90;;
12654;SDS011;6392;44.644;11.448;2022-09-09T04:19:25;5.60;;;4.40;;
12654;SDS011;6392;44.644;11.448;2022-09-09T04:21:52;6.20;;;5.10;;
12654;SDS011;6392;44.644;11.448;2022-09-09T04:24:19;7.97;;;5.30;;
12654;SDS011;6392;44.644;11.448;2022-09-09T04:26:46;5.83;;;5.07;;
12654;SDS011;6392;44.644;11.448;2022-09-09T04:29:15;11.20;;;8.10;;
12654;SDS011;6392;44.644;11.448;2022-09-09T04:31:42;12.60;;;8.53;;
12654;SDS011;6392;44.644;11.448;2022-09-09T04:34:09;12.33;;;7.10;;
12654;SDS011;6392;44.644;11.448;2022-09-09T04:36:36;13.80;;;9.50;;
12654;SDS011;6392;44.644;11.448;2022-09-09T04:39:04;11.27;;;7.20;;
12654;SDS011;6392;44.644;11.448;2022-09-09T04:41:31;11.97;;;6.87;;
12654;SDS011;6392;44.644;11.448;2022-09-09T04:43:58;9.90;;;6.53;;
12654;SDS011;6392;44.644;11.448;2022-09-09T04:46:27;7.63;;;5.50;;
12654;SDS011;6392;44.644;11.448;2022-09-09T04:48:54;7.67;;;5.83;;
12654;SDS011;6392;44.644;11.448;2022-09-09T04:51:21;7.37;;;5.40;;
12654;SDS011;6392;44.644;11.448;2022-09-09T04:53:48;9.10;;;6.63;;
12654;SDS011;6392;44.644;11.448;2022-09-09T04:56:16;10.00;;;7.37;;
12654;SDS011;6392;44.644;11.448;2022-09-09T04:58:44;13.80;;;7.97;;
12654;SDS011;6392;44.644;11.448;2022-09-09T05:01:12;15.70;;;8.30;;
12654;SDS011;6392;44.644;11.448;2022-09-09T05:03:41;12.63;;;9.43;;
12654;SDS011;6392;44.644;11.448;2022-09-09T05:06:11;12.53;;;8.07;;
12654;SDS011;6392;44.644;11.448;2022-09-09T05:08:39;8.93;;;6.13;;
12654;SDS011;6392;44.644;11.448;2022-09-09T05:11:13;8.07;;;6.27;;
12654;SDS011;6392;44.644;11.448;2022-09-09T05:13:41;8.10;;;6.07;;
12654;SDS011;6392;44.644;11.448;2022-09-09T05:16:09;5.60;;;4.90;;
12654;SDS011;6392;44.644;11.448;2022-09-09T05:18:37;10.10;;;4.70;;
12654;SDS011;6392;44.644;11.448;2022-09-09T05:21:05;5.30;;;4.27;;
12654;SDS011;6392;44.644;11.448;2022-09-09T05:23:33;8.10;;;4.83;;
12654;SDS011;6392;44.644;11.448;2022-09-09T05:26:00;6.13;;;5.47;;
12654;SDS011;6392;44.644;11.448;2022-09-09T05:28:28;7.27;;;5.77;;
12654;SDS011;6392;44.644;11.448;2022-09-09T05:30:56;7.87;;;6.37;;
12654;SDS011;6392;44.644;11.448;2022-09-09T05:33:25;10.50;;;6.37;;
12654;SDS011;6392;44.644;11.448;2022-09-09T05:35:56;10.93;;;6.90;;
12654;SDS011;6392;44.644;11.448;2022-09-09T05:38:25;11.07;;;6.50;;
12654;SDS011;6392;44.644;11.448;2022-09-09T05:40:52;10.93;;;6.80;;
12654;SDS011;6392;44.644;11.448;2022-09-09T05:43:20;22.10;;;9.13;;
12654;SDS011;6392;44.644;11.448;2022-09-09T05:45:47;28.60;;;10.23;;
12654;SDS011;6392;44.644;11.448;2022-09-09T05:48:16;33.53;;;13.20;;
12654;SDS011;6392;44.644;11.448;2022-09-09T05:50:43;29.30;;;12.47;;
12654;SDS011;6392;44.644;11.448;2022-09-09T05:53:19;22.97;;;13.07;;
12654;SDS011;6392;44.644;11.448;2022-09-09T05:55:47;19.57;;;11.33;;
12654;SDS011;6392;44.644;11.448;2022-09-09T05:58:15;25.20;;;12.97;;
12654;SDS011;6392;44.644;11.448;2022-09-09T06:00:42;16.63;;;9.47;;
12654;SDS011;6392;44.644;11.448;2022-09-09T06:03:10;15.73;;;10.73;;
12654;SDS011;6392;44.644;11.448;2022-09-09T06:05:37;12.97;;;9.40;;
12654;SDS011;6392;44.644;11.448;2022-09-09T06:08:04;13.70;;;10.00;;
12654;SDS011;6392;44.644;11.448;2022-09-09T06:10:32;11.20;;;9.87;;
12654;SDS011;6392;44.644;11.448;2022-09-09T06:13:01;14.27;;;10.57;;
12654;SDS011;6392;44.644;11.448;2022-09-09T06:15:28;15.63;;;11.60;;
12654;SDS011;6392;44.644;11.448;2022-09-09T06:17:55;15.93;;;10.70;;
12654;SDS011;6392;44.644;11.448;2022-09-09T06:20:22;16.23;;;11.93;;
12654;SDS011;6392;44.644;11.448;2022-09-09T06:22:49;16.47;;;11.33;;
12654;SDS011;6392;44.644;11.448;2022-09-09T06:25:16;13.83;;;10.73;;
12654;SDS011;6392;44.644;11.448;2022-09-09T06:27:47;17.00;;;11.63;;
12654;SDS011;6392;44.644;11.448;2022-09-09T06:30:17;16.13;;;11.97;;
12654;SDS011;6392;44.644;11.448;2022-09-09T06:32:44;16.00;;;11.47;;
12654;SDS011;6392;44.644;11.448;2022-09-09T06:35:11;15.57;;;11.90;;
12654;SDS011;6392;44.644;11.448;2022-09-09T06:37:38;15.40;;;12.03;;
12654;SDS011;6392;44.644;11.448;2022-09-09T06:40:06;18.17;;;11.70;;
12654;SDS011;6392;44.644;11.448;2022-09-09T06:42:33;17.37;;;12.70;;
12654;SDS011;6392;44.644;11.448;2022-09-09T06:45:00;14.40;;;11.77;;
12654;SDS011;6392;44.644;11.448;2022-09-09T06:47:29;15.33;;;12.17;;
12654;SDS011;6392;44.644;11.448;2022-09-09T06:49:56;19.00;;;13.00;;
12654;SDS011;6392;44.644;11.448;2022-09-09T06:52:23;18.43;;;12.77;;
12654;SDS011;6392;44.644;11.448;2022-09-09T06:54:50;15.67;;;13.10;;
12654;SDS011;6392;44.644;11.448;2022-09-09T06:57:18;18.87;;;13.93;;
12654;SDS011;6392;44.644;11.448;2022-09-09T06:59:45;18.33;;;12.77;;
12654;SDS011;6392;44.644;11.448;2022-09-09T07:02:13;16.50;;;12.63;;
12654;SDS011;6392;44.644;11.448;2022-09-09T07:04:41;15.97;;;13.13;;
12654;SDS011;6392;44.644;11.448;2022-09-09T07:07:09;16.17;;;12.93;;
12654;SDS011;6392;44.644;11.448;2022-09-09T07:09:38;20.63;;;13.07;;
12654;SDS011;6392;44.644;11.448;2022-09-09T07:12:06;19.27;;;14.63;;
12654;SDS011;6392;44.644;11.448;2022-09-09T07:14:33;19.47;;;14.13;;
12654;SDS011;6392;44.644;11.448;2022-09-09T07:17:02;16.30;;;13.50;;
12654;SDS011;6392;44.644;11.448;2022-09-09T07:19:29;18.20;;;14.80;;
12654;SDS011;6392;44.644;11.448;2022-09-09T07:21:58;19.93;;;14.33;;
12654;SDS011;6392;44.644;11.448;2022-09-09T07:24:25;23.27;;;15.50;;
12654;SDS011;6392;44.644;11.448;2022-09-09T07:26:55;19.10;;;14.63;;
12654;SDS011;6392;44.644;11.448;2022-09-09T07:29:22;21.10;;;14.57;;
12654;SDS011;6392;44.644;11.448;2022-09-09T07:31:49;20.80;;;15.20;;
12654;SDS011;6392;44.644;11.448;2022-09-09T07:34:16;24.77;;;16.30;;
12654;SDS011;6392;44.644;11.448;2022-09-09T07:36:44;21.77;;;15.00;;
12654;SDS011;6392;44.644;11.448;2022-09-09T07:39:13;24.23;;;15.60;;
12654;SDS011;6392;44.644;11.448;2022-09-09T07:41:43;23.87;;;16.13;;
12654;SDS011;6392;44.644;11.448;2022-09-09T07:44:12;19.03;;;14.60;;
12654;SDS011;6392;44.644;11.448;2022-09-09T07:46:41;21.17;;;15.30;;
12654;SDS011;6392;44.644;11.448;2022-09-09T07:49:10;22.13;;;15.23;;
12654;SDS011;6392;44.644;11.448;2022-09-09T07:51:38;19.37;;;15.10;;
12654;SDS011;6392;44.644;11.448;2022-09-09T07:54:07;24.00;;;17.00;;
12654;SDS011;6392;44.644;11.448;2022-09-09T07:56:38;22.63;;;14.90;;
12654;SDS011;6392;44.644;11.448;2022-09-09T07:59:05;23.03;;;13.90;;
12654;SDS011;6392;44.644;11.448;2022-09-09T08:01:35;22.03;;;15.47;;
12654;SDS011;6392;44.644;11.448;2022-09-09T08:04:04;21.63;;;14.60;;
12654;SDS011;6392;44.644;11.448;2022-09-09T08:06:36;19.77;;;14.53;;
12654;SDS011;6392;44.644;11.448;2022-09-09T08:09:05;19.17;;;13.90;;
12654;SDS011;6392;44.644;11.448;2022-09-09T08:11:33;25.47;;;15.03;;
12654;SDS011;6392;44.644;11.448;2022-09-09T08:14:02;21.23;;;14.77;;
12654;SDS011;6392;44.644;11.448;2022-09-09T08:16:30;21.70;;;15.03;;
12654;SDS011;6392;44.644;11.448;2022-09-09T08:18:59;19.23;;;14.97;;
12654;SDS011;6392;44.644;11.448;2022-09-09T08:21:27;20.83;;;15.37;;
12654;SDS011;6392;44.644;11.448;2022-09-09T08:23:58;21.10;;;15.00;;
12654;SDS011;6392;44.644;11.448;2022-09-09T08:26:27;20.60;;;15.47;;
12654;SDS011;6392;44.644;11.448;2022-09-09T08:28:56;20.90;;;13.97;;
12654;SDS011;6392;44.644;11.448;2022-09-09T08:31:26;20.40;;;14.33;;
12654;SDS011;6392;44.644;11.448;2022-09-09T08:33:54;22.63;;;14.37;;
12654;SDS011;6392;44.644;11.448;2022-09-09T08:36:23;20.13;;;13.93;;
12654;SDS011;6392;44.644;11.448;2022-09-09T08:38:52;22.03;;;13.47;;
12654;SDS011;6392;44.644;11.448;2022-09-09T08:44:26;16.63;;;12.50;;
12654;SDS011;6392;44.644;11.448;2022-09-09T08:47:06;18.90;;;12.90;;
12654;SDS011;6392;44.644;11.448;2022-09-09T08:49:45;14.70;;;11.80;;
12654;SDS011;6392;44.644;11.448;2022-09-09T08:52:36;15.00;;;10.83;;
12654;SDS011;6392;44.644;11.448;2022-09-09T08:55:12;14.67;;;11.67;;
12654;SDS011;6392;44.644;11.448;2022-09-09T08:57:47;12.90;;;10.50;;
12654;SDS011;6392;44.644;11.448;2022-09-09T09:00:17;12.77;;;8.47;;
12654;SDS011;6392;44.644;11.448;2022-09-09T09:02:46;14.10;;;9.80;;
12654;SDS011;6392;44.644;11.448;2022-09-09T09:05:23;8.93;;;6.43;;
12654;SDS011;6392;44.644;11.448;2022-09-09T09:07:59;12.63;;;9.43;;
12654;SDS011;6392;44.644;11.448;2022-09-09T09:10:39;13.80;;;9.27;;
12654;SDS011;6392;44.644;11.448;2022-09-09T09:13:13;10.93;;;9.80;;
12654;SDS011;6392;44.644;11.448;2022-09-09T09:15:43;13.00;;;8.33;;
12654;SDS011;6392;44.644;11.448;2022-09-09T09:18:14;11.10;;;7.07;;
12654;SDS011;6392;44.644;11.448;2022-09-09T09:20:45;11.10;;;7.93;;
12654;SDS011;6392;44.644;11.448;2022-09-09T09:23:24;13.67;;;9.10;;
12654;SDS011;6392;44.644;11.448;2022-09-09T09:25:56;8.40;;;6.63;;
12654;SDS011;6392;44.644;11.448;2022-09-09T09:28:26;11.83;;;7.90;;
12654;SDS011;6392;44.644;11.448;2022-09-09T09:30:56;9.67;;;6.00;;
12654;SDS011;6392;44.644;11.448;2022-09-09T09:33:31;11.13;;;6.63;;
12654;SDS011;6392;44.644;11.448;2022-09-09T09:36:01;9.10;;;5.90;;
12654;SDS011;6392;44.644;11.448;2022-09-09T09:38:33;5.93;;;4.73;;
12654;SDS011;6392;44.644;11.448;2022-09-09T09:41:01;6.77;;;4.00;;
12654;SDS011;6392;44.644;11.448;2022-09-09T09:43:29;9.97;;;4.87;;
12654;SDS011;6392;44.644;11.448;2022-09-09T09:45:57;7.63;;;3.33;;
12654;SDS011;6392;44.644;11.448;2022-09-09T09:48:25;10.00;;;5.23;;
12654;SDS011;6392;44.644;11.448;2022-09-09T09:50:55;10.10;;;5.33;;
12654;SDS011;6392;44.644;11.448;2022-09-09T09:53:26;11.43;;;5.53;;
12654;SDS011;6392;44.644;11.448;2022-09-09T09:55:56;6.60;;;3.70;;
12654;SDS011;6392;44.644;11.448;2022-09-09T09:58:25;6.00;;;3.50;;
12654;SDS011;6392;44.644;11.448;2022-09-09T10:00:58;8.57;;;5.43;;
12654;SDS011;6392;44.644;11.448;2022-09-09T10:03:28;9.83;;;4.80;;
12654;SDS011;6392;44.644;11.448;2022-09-09T10:05:57;6.93;;;3.80;;
12654;SDS011;6392;44.644;11.448;2022-09-09T10:08:25;4.93;;;2.97;;
12654;SDS011;6392;44.644;11.448;2022-09-09T10:13:48;8.33;;;4.40;;
12654;SDS011;6392;44.644;11.448;2022-09-09T10:16:29;4.50;;;2.80;;
12654;SDS011;6392;44.644;11.448;2022-09-09T10:19:09;4.00;;;2.40;;
12654;SDS011;6392;44.644;11.448;2022-09-09T10:24:39;5.23;;;2.07;;
12654;SDS011;6392;44.644;11.448;2022-09-09T10:27:28;10.37;;;2.50;;
12654;SDS011;6392;44.644;11.448;2022-09-09T10:30:09;9.63;;;2.57;;
12654;SDS011;6392;44.644;11.448;2022-09-09T10:32:45;4.23;;;2.57;;
12654;SDS011;6392;44.644;11.448;2022-09-09T10:35:24;5.37;;;2.47;;
12654;SDS011;6392;44.644;11.448;2022-09-09T10:38:13;4.00;;;1.60;;
12654;SDS011;6392;44.644;11.448;2022-09-09T10:44:13;2.60;;;1.47;;
12654;SDS011;6392;44.644;11.448;2022-09-09T10:46:52;2.10;;;1.13;;
12654;SDS011;6392;44.644;11.448;2022-09-09T10:49:38;3.13;;;1.43;;
12654;SDS011;6392;44.644;11.448;2022-09-09T10:52:20;4.23;;;1.10;;
12654;SDS011;6392;44.644;11.448;2022-09-09T10:54:56;2.63;;;1.33;;
12654;SDS011;6392;44.644;11.448;2022-09-09T10:57:33;4.00;;;1.30;;
12654;SDS011;6392;44.644;11.448;2022-09-09T11:00:10;4.93;;;1.20;;
12654;SDS011;6392;44.644;11.448;2022-09-09T11:02:43;3.00;;;1.20;;
12654;SDS011;6392;44.644;11.448;2022-09-09T11:05:12;3.93;;;0.93;;
12654;SDS011;6392;44.644;11.448;2022-09-09T11:07:45;3.73;;;1.53;;
12654;SDS011;6392;44.644;11.448;2022-09-09T11:10:21;3.13;;;1.00;;
12654;SDS011;6392;44.644;11.448;2022-09-09T11:12:51;2.30;;;0.77;;
12654;SDS011;6392;44.644;11.448;2022-09-09T11:15:23;2.97;;;0.70;;
12654;SDS011;6392;44.644;11.448;2022-09-09T11:17:58;1.93;;;0.90;;
12654;SDS011;6392;44.644;11.448;2022-09-09T11:20:27;5.60;;;1.30;;
12654;SDS011;6392;44.644;11.448;2022-09-09T11:22:55;2.53;;;1.33;;
12654;SDS011;6392;44.644;11.448;2022-09-09T11:25:29;2.00;;;1.37;;
12654;SDS011;6392;44.644;11.448;2022-09-09T11:28:08;3.90;;;1.23;;
12654;SDS011;6392;44.644;11.448;2022-09-09T11:30:58;3.47;;;1.63;;
12654;SDS011;6392;44.644;11.448;2022-09-09T11:33:42;2.20;;;0.90;;
12654;SDS011;6392;44.644;11.448;2022-09-09T11:36:25;3.40;;;1.10;;
12654;SDS011;6392;44.644;11.448;2022-09-09T11:39:23;3.77;;;1.40;;
12654;SDS011;6392;44.644;11.448;2022-09-09T11:42:17;3.97;;;1.20;;
12654;SDS011;6392;44.644;11.448;2022-09-09T11:44:46;2.23;;;1.20;;
12654;SDS011;6392;44.644;11.448;2022-09-09T11:47:19;1.20;;;1.00;;
12654;SDS011;6392;44.644;11.448;2022-09-09T11:49:49;4.27;;;1.87;;
12654;SDS011;6392;44.644;11.448;2022-09-09T11:52:21;2.80;;;1.67;;
12654;SDS011;6392;44.644;11.448;2022-09-09T11:54:50;1.80;;;1.40;;
12654;SDS011;6392;44.644;11.448;2022-09-09T11:57:24;3.20;;;0.97;;
12654;SDS011;6392;44.644;11.448;2022-09-09T11:59:57;3.40;;;1.30;;
12654;SDS011;6392;44.644;11.448;2022-09-09T12:02:25;2.67;;;1.43;;
12654;SDS011;6392;44.644;11.448;2022-09-09T12:04:57;1.83;;;1.47;;
12654;SDS011;6392;44.644;11.448;2022-09-09T12:07:32;3.10;;;1.47;;
12654;SDS011;6392;44.644;11.448;2022-09-09T12:10:03;4.00;;;1.80;;
12654;SDS011;6392;44.644;11.448;2022-09-09T12:12:46;4.43;;;1.33;;
12654;SDS011;6392;44.644;11.448;2022-09-09T12:15:18;2.60;;;1.40;;
12654;SDS011;6392;44.644;11.448;2022-09-09T12:17:47;5.03;;;1.53;;
12654;SDS011;6392;44.644;11.448;2022-09-09T12:20:17;2.63;;;1.10;;
12654;SDS011;6392;44.644;11.448;2022-09-09T12:25:36;2.10;;;1.10;;
12654;SDS011;6392;44.644;11.448;2022-09-09T12:28:17;2.43;;;1.50;;
12654;SDS011;6392;44.644;11.448;2022-09-09T12:30:48;4.83;;;1.73;;
12654;SDS011;6392;44.644;11.448;2022-09-09T12:33:22;3.70;;;1.40;;
12654;SDS011;6392;44.644;11.448;2022-09-09T12:35:51;2.67;;;1.13;;
12654;SDS011;6392;44.644;11.448;2022-09-09T12:38:24;1.77;;;1.23;;
12654;SDS011;6392;44.644;11.448;2022-09-09T12:40:58;2.67;;;1.40;;
12654;SDS011;6392;44.644;11.448;2022-09-09T12:43:27;6.77;;;1.20;;
12654;SDS011;6392;44.644;11.448;2022-09-09T12:45:55;2.53;;;1.20;;
12654;SDS011;6392;44.644;11.448;2022-09-09T12:48:27;2.63;;;0.98;;
12654;SDS011;6392;44.644;11.448;2022-09-09T12:51:01;1.97;;;1.10;;
12654;SDS011;6392;44.644;11.448;2022-09-09T12:53:31;3.03;;;1.13;;
12654;SDS011;6392;44.644;11.448;2022-09-09T12:56:01;3.63;;;1.50;;
12654;SDS011;6392;44.644;11.448;2022-09-09T12:58:35;5.17;;;0.97;;
12654;SDS011;6392;44.644;11.448;2022-09-09T13:01:05;3.97;;;1.20;;
12654;SDS011;6392;44.644;11.448;2022-09-09T13:03:33;2.40;;;1.30;;
12654;SDS011;6392;44.644;11.448;2022-09-09T13:06:13;4.30;;;1.40;;
12654;SDS011;6392;44.644;11.448;2022-09-09T13:08:48;5.53;;;1.60;;
12654;SDS011;6392;44.644;11.448;2022-09-09T13:11:16;4.33;;;1.47;;
12654;SDS011;6392;44.644;11.448;2022-09-09T13:13:50;3.17;;;1.47;;
12654;SDS011;6392;44.644;11.448;2022-09-09T13:16:20;2.87;;;1.50;;
12654;SDS011;6392;44.644;11.448;2022-09-09T13:18:49;3.90;;;1.60;;
12654;SDS011;6392;44.644;11.448;2022-09-09T13:21:17;2.13;;;1.53;;
12654;SDS011;6392;44.644;11.448;2022-09-09T13:23:48;3.70;;;1.53;;
12654;SDS011;6392;44.644;11.448;2022-09-09T13:26:21;1.83;;;1.47;;
12654;SDS011;6392;44.644;11.448;2022-09-09T13:28:51;4.27;;;1.73;;
12654;SDS011;6392;44.644;11.448;2022-09-09T13:31:21;6.73;;;1.67;;
12654;SDS011;6392;44.644;11.448;2022-09-09T13:33:49;3.07;;;1.93;;
12654;SDS011;6392;44.644;11.448;2022-09-09T13:36:26;6.07;;;2.23;;
12654;SDS011;6392;44.644;11.448;2022-09-09T13:38:55;2.87;;;1.50;;
12654;SDS011;6392;44.644;11.448;2022-09-09T13:41:25;5.70;;;1.83;;
12654;SDS011;6392;44.644;11.448;2022-09-09T13:43:57;5.03;;;1.93;;
12654;SDS011;6392;44.644;11.448;2022-09-09T13:46:25;5.43;;;1.47;;
12654;SDS011;6392;44.644;11.448;2022-09-09T13:48:57;4.63;;;1.70;;
12654;SDS011;6392;44.644;11.448;2022-09-09T13:51:28;1.90;;;1.27;;
12654;SDS011;6392;44.644;11.448;2022-09-09T13:54:00;4.60;;;1.30;;
12654;SDS011;6392;44.644;11.448;2022-09-09T13:56:27;2.70;;;1.20;;
12654;SDS011;6392;44.644;11.448;2022-09-09T13:58:54;3.17;;;1.37;;
12654;SDS011;6392;44.644;11.448;2022-09-09T14:01:23;1.40;;;1.30;;
12654;SDS011;6392;44.644;11.448;2022-09-09T14:03:50;3.17;;;1.50;;
12654;SDS011;6392;44.644;11.448;2022-09-09T14:06:18;1.80;;;1.40;;
12654;SDS011;6392;44.644;11.448;2022-09-09T14:08:47;3.67;;;1.70;;
12654;SDS011;6392;44.644;11.448;2022-09-09T14:11:15;6.63;;;1.13;;
12654;SDS011;6392;44.644;11.448;2022-09-09T14:13:43;4.67;;;1.80;;
12654;SDS011;6392;44.644;11.448;2022-09-09T14:16:13;2.37;;;1.07;;
12654;SDS011;6392;44.644;11.448;2022-09-09T14:18:40;5.10;;;0.97;;
12654;SDS011;6392;44.644;11.448;2022-09-09T14:21:08;3.93;;;1.77;;
12654;SDS011;6392;44.644;11.448;2022-09-09T14:23:35;2.23;;;1.40;;
12654;SDS011;6392;44.644;11.448;2022-09-09T14:26:03;3.33;;;1.40;;
12654;SDS011;6392;44.644;11.448;2022-09-09T14:28:31;4.03;;;1.70;;
12654;SDS011;6392;44.644;11.448;2022-09-09T14:30:58;4.20;;;1.40;;
12654;SDS011;6392;44.644;11.448;2022-09-09T14:33:27;4.83;;;1.73;;
12654;SDS011;6392;44.644;11.448;2022-09-09T14:35:55;5.07;;;1.23;;
12654;SDS011;6392;44.644;11.448;2022-09-09T14:38:23;1.53;;;1.20;;
12654;SDS011;6392;44.644;11.448;2022-09-09T14:40:51;2.30;;;1.67;;
12654;SDS011;6392;44.644;11.448;2022-09-09T14:43:18;2.07;;;1.37;;
12654;SDS011;6392;44.644;11.448;2022-09-09T14:45:45;2.63;;;1.20;;
12654;SDS011;6392;44.644;11.448;2022-09-09T14:48:13;2.03;;;1.30;;
12654;SDS011;6392;44.644;11.448;2022-09-09T14:50:41;3.67;;;1.40;;
12654;SDS011;6392;44.644;11.448;2022-09-09T14:53:08;4.70;;;1.40;;
12654;SDS011;6392;44.644;11.448;2022-09-09T14:55:35;2.80;;;1.43;;
12654;SDS011;6392;44.644;11.448;2022-09-09T14:58:03;3.60;;;1.40;;
12654;SDS011;6392;44.644;11.448;2022-09-09T15:00:30;2.60;;;1.50;;
12654;SDS011;6392;44.644;11.448;2022-09-09T15:02:57;4.83;;;1.40;;
12654;SDS011;6392;44.644;11.448;2022-09-09T15:05:24;2.53;;;1.40;;
12654;SDS011;6392;44.644;11.448;2022-09-09T15:07:54;3.13;;;1.43;;
12654;SDS011;6392;44.644;11.448;2022-09-09T15:10:21;2.47;;;1.30;;
12654;SDS011;6392;44.644;11.448;2022-09-09T15:12:48;2.93;;;1.30;;
12654;SDS011;6392;44.644;11.448;2022-09-09T15:15:15;5.90;;;1.40;;
12654;SDS011;6392;44.644;11.448;2022-09-09T15:17:42;4.00;;;1.20;;
12654;SDS011;6392;44.644;11.448;2022-09-09T15:20:09;3.03;;;1.40;;